Airfield :







YOU CAN JOIN US ON...

 
LOGIN :

Register | Disclaimer

   EN    FR    IT 

 









Legend :    VFR   Marginal VFR   IFR   Intensive IFR   Very Intensive IFR
Visi :
Ceiling :
>= 8 km
>= 3000ft
5 to 8 km
1000 to 3000 ft
1500m to 5 km
500 to 1000 ft
800 to 1500m
200 to 500 ft
< 800m
< 200 ft
Symbols :   Thunderstorms  Fog  Heavy snow  Heavy precipitations  Wind > 20 kt






- Airport Elevation : 1663 ft
- IATA code : SLK


KSLK - Adirondack Regional

CURRENT METAR :
  • 180551Z AUTO 02003KT 10SM CLR M18/M21 A3028 RMK AO2 SLP291 I6000 T11781206 11139 21206 58003

EXPIRED METARs :
  • 180451Z AUTO 00000KT 10SM CLR M19/M22 A3029 RMK AO2 SLP295 T11891217 410281206
  • 180351Z AUTO 01003KT 10SM CLR M20/M23 A3029 RMK AO2 SLP296 T12001228

TAF KSLK
Valid from the 18 at 06:00 until the 19 at 06:00 UTC


180533Z 1806/1906 VRB04KT P6SM BKN150
FM181100 16006KT P6SM VCSH OVC040
FM181400 16012KT 2SM -SN BR OVC030 WS020/18045KT
FM181500 16015G23KT 1 1/2SM -SN BR OVC025 WS020/18050KT
FM181800 18025G37KT 2SM -SN BR OVC030 WS020/19055KT
FM182200 20020G30KT 5SM -DZ VCSH OVC016 WS020/22050KT
FM190300 25017G26KT 5SM -FZDZ OVC020



MET'MAP, your aeronautical weather chart ! - Copyright ORBIFLY December 2007 - Disclaimer

ORBIFLY MET'MAP TEAM :

Programming & Development : Alexandra Zaïnal
Concept & original design : Baudouin d'Aumeries
Assistance for programming : Marc-Olivier Méhu
Technical & hardware support : Manuel Goepfert

Contact : metmap@orbifly.com




SOURCES & CREDITS :

   NOAA